createdAt,value
2024-01-07T00:00:43.056Z,5.25
2024-01-07T00:03:09.958Z,4.52
2024-01-07T00:05:38.749Z,4.59
2024-01-07T00:08:06.013Z,3.68
2024-01-07T00:10:32.773Z,4.32
2024-01-07T00:12:59.646Z,5.14
2024-01-07T00:15:28.215Z,2.83
2024-01-07T00:17:55.344Z,5.32
2024-01-07T00:20:22.257Z,6.20
2024-01-07T00:22:49.209Z,4.34
2024-01-07T00:25:16.047Z,4.31
2024-01-07T00:27:42.909Z,5.42
2024-01-07T00:30:10.068Z,4.37
2024-01-07T00:32:37.012Z,4.48
2024-01-07T00:35:04.361Z,5.23
2024-01-07T00:37:31.354Z,3.49
2024-01-07T00:39:58.247Z,3.47
2024-01-07T00:42:25.177Z,4.07
2024-01-07T00:44:51.929Z,4.06
2024-01-07T00:47:18.848Z,4.63
2024-01-07T00:49:45.791Z,4.31
2024-01-07T00:52:12.577Z,4.86
2024-01-07T00:54:40.102Z,4.24
2024-01-07T00:57:06.944Z,4.84
2024-01-07T00:59:33.661Z,4.52
2024-01-07T01:02:00.455Z,4.51
2024-01-07T01:04:27.451Z,4.24
2024-01-07T01:06:54.345Z,4.34
2024-01-07T01:09:21.269Z,5.00
2024-01-07T01:11:48.061Z,4.74
2024-01-07T01:14:14.843Z,4.80
2024-01-07T01:16:41.637Z,3.90
2024-01-07T01:19:10.077Z,4.38
2024-01-07T01:21:37.083Z,5.36
2024-01-07T01:24:05.413Z,5.33
2024-01-07T01:26:32.192Z,4.97
2024-01-07T01:28:58.978Z,4.78
2024-01-07T01:31:25.926Z,4.56
2024-01-07T01:33:52.847Z,4.55
2024-01-07T01:36:20.107Z,3.84
2024-01-07T01:38:46.899Z,4.54
2024-01-07T01:41:13.701Z,5.15
2024-01-07T01:43:40.498Z,4.48
2024-01-07T01:46:08.042Z,4.33
2024-01-07T01:48:37.030Z,4.80
2024-01-07T01:51:04.328Z,5.10
2024-01-07T01:53:33.203Z,5.16
2024-01-07T01:56:03.188Z,5.56
2024-01-07T01:58:31.144Z,4.11
2024-01-07T02:00:58.421Z,4.34
2024-01-07T02:03:27.218Z,4.23
2024-01-07T02:05:54.909Z,4.81
2024-01-07T02:08:22.450Z,4.53
2024-01-07T02:10:49.301Z,4.44
2024-01-07T02:13:16.100Z,4.27
2024-01-07T02:15:44.033Z,4.10
2024-01-07T02:18:11.012Z,4.05
2024-01-07T02:20:37.886Z,3.41
2024-01-07T02:23:05.340Z,4.35
2024-01-07T02:25:38.734Z,5.06
2024-01-07T02:28:06.971Z,5.14
2024-01-07T02:30:34.088Z,5.38
2024-01-07T02:33:07.333Z,4.35
2024-01-07T02:35:34.301Z,3.66
2024-01-07T02:38:01.094Z,4.25
2024-01-07T02:40:28.270Z,4.64
2024-01-07T02:42:57.124Z,4.17
2024-01-07T02:45:24.430Z,4.29
2024-01-07T02:47:52.896Z,4.37
2024-01-07T02:50:19.750Z,4.11
2024-01-07T02:52:46.497Z,4.59
2024-01-07T02:55:13.447Z,4.20
2024-01-07T02:57:40.295Z,4.14
2024-01-07T03:00:07.824Z,4.43
2024-01-07T03:02:34.704Z,3.50
2024-01-07T03:05:02.124Z,4.20
2024-01-07T03:07:28.960Z,4.19
2024-01-07T03:09:55.853Z,3.12
2024-01-07T03:12:22.628Z,4.61
2024-01-07T03:14:49.399Z,5.31
2024-01-07T03:17:18.267Z,3.98
2024-01-07T03:19:45.097Z,5.40
2024-01-07T03:22:11.924Z,4.70
2024-01-07T03:24:38.691Z,4.80
2024-01-07T03:27:05.712Z,3.23
2024-01-07T03:29:32.543Z,4.64
2024-01-07T03:31:59.230Z,4.15
2024-01-07T03:34:26.093Z,3.83
2024-01-07T03:36:52.993Z,5.42
2024-01-07T03:39:19.767Z,4.56
2024-01-07T03:41:46.507Z,5.03
2024-01-07T03:44:13.357Z,5.24
2024-01-07T03:46:40.140Z,5.31
2024-01-07T03:49:06.989Z,5.41
2024-01-07T03:51:33.943Z,4.86
2024-01-07T03:54:00.750Z,4.94
2024-01-07T03:56:27.486Z,5.14
2024-01-07T03:58:54.253Z,5.52
2024-01-07T04:01:21.623Z,4.72
2024-01-07T04:03:48.729Z,5.35
2024-01-07T04:06:15.730Z,6.04
2024-01-07T04:08:42.462Z,3.58
2024-01-07T04:11:09.653Z,5.41
2024-01-07T04:13:36.469Z,4.87
2024-01-07T04:16:04.042Z,5.63
2024-01-07T04:18:31.049Z,6.09
2024-01-07T04:20:57.931Z,6.32
2024-01-07T04:23:24.726Z,6.35
2024-01-07T04:25:51.431Z,5.87
2024-01-07T04:28:18.202Z,5.89
2024-01-07T04:30:45.365Z,5.67
2024-01-07T04:33:12.334Z,5.07
2024-01-07T04:35:39.148Z,5.92
2024-01-07T04:38:05.897Z,4.81
2024-01-07T04:40:32.735Z,5.33
2024-01-07T04:42:59.591Z,5.28
2024-01-07T04:45:26.512Z,5.02
2024-01-07T04:47:53.456Z,5.29
2024-01-07T04:50:21.186Z,6.23
2024-01-07T04:52:48.164Z,5.84
2024-01-07T04:55:15.144Z,6.00
2024-01-07T04:57:42.069Z,5.82
2024-01-07T05:00:09.264Z,4.81
2024-01-07T05:02:36.021Z,4.80
2024-01-07T05:05:02.881Z,5.62
2024-01-07T05:07:29.748Z,5.97
2024-01-07T05:09:56.538Z,5.95
2024-01-07T05:12:23.378Z,5.02
2024-01-07T05:14:50.231Z,5.44
2024-01-07T05:17:17.117Z,5.63
2024-01-07T05:19:44.028Z,5.76
2024-01-07T05:22:11.013Z,5.73
2024-01-07T05:24:40.019Z,4.96
2024-01-07T05:27:07.163Z,5.83
2024-01-07T05:29:34.842Z,5.69
2024-01-07T05:32:02.620Z,4.69
2024-01-07T05:34:29.914Z,4.04
2024-01-07T05:36:56.735Z,5.62
2024-01-07T05:39:23.566Z,5.60
2024-01-07T05:41:50.395Z,5.41
2024-01-07T05:44:17.216Z,5.79
2024-01-07T05:46:44.142Z,5.13
2024-01-07T05:49:11.168Z,4.80
2024-01-07T05:51:42.023Z,4.28
2024-01-07T05:54:09.256Z,5.35
2024-01-07T05:56:42.813Z,5.48
2024-01-07T05:59:10.020Z,5.55
2024-01-07T06:01:36.980Z,5.32
2024-01-07T06:04:04.287Z,4.89
2024-01-07T06:06:31.393Z,4.42
2024-01-07T06:08:58.433Z,4.34
2024-01-07T06:11:25.295Z,4.43
2024-01-07T06:13:52.079Z,4.89
2024-01-07T06:16:18.970Z,5.33
2024-01-07T06:18:45.980Z,4.82
2024-01-07T06:21:12.834Z,5.11
2024-01-07T06:23:39.627Z,5.27
2024-01-07T06:26:06.689Z,5.35
2024-01-07T06:28:34.452Z,5.20
2024-01-07T06:31:04.348Z,5.60
2024-01-07T06:33:31.526Z,4.24
2024-01-07T06:35:58.410Z,4.76
2024-01-07T06:38:25.427Z,4.56
2024-01-07T06:40:52.568Z,4.28
2024-01-07T06:43:19.840Z,3.93
2024-01-07T06:45:46.680Z,4.24
2024-01-07T06:48:13.843Z,4.27
2024-01-07T06:50:40.738Z,4.85
2024-01-07T06:53:07.488Z,3.92
2024-01-07T06:55:34.252Z,5.03
2024-01-07T06:58:01.180Z,3.69
2024-01-07T07:00:28.117Z,4.31
2024-01-07T07:02:56.895Z,4.97
2024-01-07T07:05:23.685Z,4.91
2024-01-07T07:07:53.924Z,4.53
2024-01-07T07:10:22.170Z,4.93
2024-01-07T07:12:49.052Z,4.26
2024-01-07T07:15:15.923Z,5.01
2024-01-07T07:17:42.774Z,4.89
2024-01-07T07:20:10.214Z,4.48
2024-01-07T07:22:37.158Z,4.37
2024-01-07T07:25:04.204Z,4.05
2024-01-07T07:27:31.079Z,3.86
2024-01-07T07:29:57.935Z,4.05
2024-01-07T07:32:24.971Z,3.77
2024-01-07T07:34:51.907Z,4.01
2024-01-07T07:37:21.319Z,4.50
2024-01-07T07:39:48.616Z,3.83
2024-01-07T07:42:15.441Z,4.15
2024-01-07T07:44:42.272Z,5.07
2024-01-07T07:47:12.739Z,4.69
2024-01-07T07:49:41.545Z,4.14
2024-01-07T07:52:12.287Z,3.25
2024-01-07T07:54:39.503Z,3.34
2024-01-07T07:57:06.381Z,4.07
2024-01-07T07:59:33.195Z,4.07
2024-01-07T08:02:00.911Z,4.42
2024-01-07T08:04:28.159Z,4.52
2024-01-07T08:06:57.430Z,4.56
2024-01-07T08:09:26.411Z,4.32
2024-01-07T08:11:53.450Z,4.29
2024-01-07T08:14:20.433Z,3.79
2024-01-07T08:16:47.331Z,4.42
2024-01-07T08:19:14.238Z,4.97
2024-01-07T08:21:41.616Z,4.14
2024-01-07T08:24:08.391Z,5.17
2024-01-07T08:26:35.170Z,4.35
2024-01-07T08:29:01.976Z,4.06
2024-01-07T08:31:28.839Z,5.49
2024-01-07T08:33:55.741Z,4.89
2024-01-07T08:36:22.810Z,5.03
2024-01-07T08:38:49.842Z,5.74
2024-01-07T08:41:17.397Z,5.06
2024-01-07T08:43:45.094Z,4.74
2024-01-07T08:46:14.599Z,4.26
2024-01-07T08:48:41.625Z,4.16
2024-01-07T08:51:08.738Z,4.41
2024-01-07T08:53:35.579Z,4.49
2024-01-07T08:56:02.527Z,3.59
2024-01-07T08:58:29.300Z,3.18
2024-01-07T09:00:56.178Z,3.39
2024-01-07T09:03:23.081Z,3.89
2024-01-07T09:05:50.009Z,4.42
2024-01-07T09:08:16.984Z,2.98
2024-01-07T09:10:43.845Z,4.84
2024-01-07T09:13:10.972Z,4.04
2024-01-07T09:15:38.440Z,4.39
2024-01-07T09:18:05.639Z,4.37
2024-01-07T09:20:32.810Z,4.46
2024-01-07T09:22:59.808Z,3.52
2024-01-07T09:25:27.420Z,3.10
2024-01-07T09:27:54.523Z,4.63
2024-01-07T09:30:21.390Z,4.96
2024-01-07T09:32:48.293Z,5.43
2024-01-07T09:35:15.920Z,4.07
2024-01-07T09:37:42.868Z,4.43
2024-01-07T09:40:10.589Z,4.06
2024-01-07T09:42:37.517Z,5.83
2024-01-07T09:45:08.232Z,4.24
2024-01-07T09:47:36.506Z,3.51
2024-01-07T09:50:03.449Z,3.68
2024-01-07T09:52:31.101Z,4.64
2024-01-07T09:55:05.202Z,5.16
2024-01-07T09:57:32.273Z,4.51
2024-01-07T10:00:00.850Z,4.23
2024-01-07T10:02:27.818Z,4.90
2024-01-07T10:04:54.685Z,3.99
2024-01-07T10:07:21.654Z,5.22
2024-01-07T10:09:48.525Z,5.19
2024-01-07T10:12:15.868Z,4.25
2024-01-07T10:14:42.656Z,4.91
2024-01-07T10:17:17.713Z,5.71
2024-01-07T10:19:49.355Z,4.83
2024-01-07T10:22:17.529Z,4.89
2024-01-07T10:24:44.810Z,4.07
2024-01-07T10:27:12.116Z,3.09
2024-01-07T10:29:39.206Z,4.56
2024-01-07T10:32:07.189Z,5.08
2024-01-07T10:34:36.302Z,4.67
2024-01-07T10:37:06.436Z,3.75
2024-01-07T10:39:33.667Z,3.85
2024-01-07T10:42:01.006Z,4.60
2024-01-07T10:44:33.063Z,5.13
2024-01-07T10:47:01.064Z,4.21
2024-01-07T10:49:30.078Z,4.57
2024-01-07T10:52:05.975Z,4.49
2024-01-07T10:54:35.069Z,4.30
2024-01-07T10:57:39.234Z,5.08
2024-01-07T11:00:09.041Z,5.11
2024-01-07T11:02:45.316Z,5.89
2024-01-07T11:05:18.526Z,4.02
2024-01-07T11:08:14.912Z,4.55
2024-01-07T11:10:58.880Z,5.47
2024-01-07T11:13:36.769Z,3.84
2024-01-07T11:16:04.206Z,5.69
2024-01-07T11:18:35.403Z,4.02
2024-01-07T11:21:02.859Z,5.36
2024-01-07T11:23:41.263Z,5.79
2024-01-07T11:26:10.844Z,4.92
2024-01-07T11:28:44.791Z,3.97
2024-01-07T11:31:12.097Z,4.53
2024-01-07T11:33:39.222Z,4.33
2024-01-07T11:36:06.852Z,4.84
2024-01-07T11:38:35.573Z,3.98
2024-01-07T11:41:04.718Z,4.35
2024-01-07T11:43:31.585Z,4.16
2024-01-07T11:45:58.920Z,3.33
2024-01-07T11:48:25.879Z,4.53
2024-01-07T11:50:55.274Z,3.88
2024-01-07T11:53:23.320Z,4.62
2024-01-07T11:55:50.540Z,4.28
2024-01-07T11:58:17.350Z,3.20
2024-01-07T12:00:44.232Z,4.43
2024-01-07T12:03:11.094Z,4.00
2024-01-07T12:05:38.673Z,4.71
2024-01-07T12:08:07.176Z,3.89
2024-01-07T12:10:34.867Z,3.96
2024-01-07T12:13:02.133Z,4.23
2024-01-07T12:15:29.285Z,3.82
2024-01-07T12:18:05.076Z,4.26
2024-01-07T12:20:32.397Z,4.26
2024-01-07T12:23:07.370Z,3.34
2024-01-07T12:25:34.279Z,3.97
2024-01-07T12:28:01.219Z,4.28
2024-01-07T12:30:28.646Z,3.04
2024-01-07T12:32:56.379Z,2.40
2024-01-07T12:35:26.693Z,3.98
2024-01-07T12:37:53.594Z,3.76
2024-01-07T12:40:21.250Z,4.17
2024-01-07T12:42:48.615Z,3.00
2024-01-07T12:45:16.437Z,4.05
2024-01-07T12:47:43.933Z,3.01
2024-01-07T12:50:11.691Z,3.92
2024-01-07T12:52:41.833Z,4.30
2024-01-07T12:55:09.470Z,1.73
2024-01-07T12:57:36.676Z,2.98
2024-01-07T13:00:07.769Z,3.57
2024-01-07T13:02:35.880Z,3.48
2024-01-07T13:05:04.634Z,3.29
2024-01-07T13:07:31.853Z,2.25
2024-01-07T13:09:58.706Z,3.35
2024-01-07T13:12:36.786Z,3.40
2024-01-07T13:15:10.821Z,3.85
2024-01-07T13:17:38.209Z,3.74
2024-01-07T13:20:07.942Z,3.34
2024-01-07T13:22:35.883Z,3.01
2024-01-07T13:25:02.804Z,4.30
2024-01-07T13:27:29.605Z,3.64
2024-01-07T13:29:56.779Z,4.31
2024-01-07T13:32:23.994Z,3.99
2024-01-07T13:34:51.162Z,3.45
2024-01-07T13:37:18.073Z,2.47
2024-01-07T13:39:45.050Z,2.38
2024-01-07T13:42:12.010Z,1.88
2024-01-07T13:44:47.284Z,3.27
2024-01-07T13:47:17.985Z,2.75
2024-01-07T13:49:46.274Z,1.88
2024-01-07T13:52:15.504Z,2.96
2024-01-07T13:54:42.794Z,1.80
2024-01-07T13:57:09.781Z,3.15
2024-01-07T13:59:36.685Z,2.24
2024-01-07T14:02:04.491Z,3.19
2024-01-07T14:04:32.649Z,2.44
2024-01-07T14:06:59.554Z,2.87
2024-01-07T14:09:26.545Z,1.03
2024-01-07T14:11:53.397Z,2.93
2024-01-07T14:14:23.143Z,2.37
2024-01-07T14:16:49.923Z,2.96
2024-01-07T14:19:17.733Z,2.07
2024-01-07T14:21:44.850Z,4.06
2024-01-07T14:24:11.852Z,3.46
2024-01-07T14:26:38.778Z,3.45
2024-01-07T14:29:15.817Z,4.60
2024-01-07T14:31:46.382Z,4.35
2024-01-07T14:34:13.466Z,3.95
2024-01-07T14:36:46.662Z,3.63
2024-01-07T14:39:15.515Z,3.37
2024-01-07T14:41:42.620Z,4.16
2024-01-07T14:44:12.478Z,3.75
2024-01-07T14:46:40.572Z,4.43
2024-01-07T14:49:08.422Z,4.10
2024-01-07T14:51:35.560Z,3.42
2024-01-07T14:54:02.546Z,4.60
2024-01-07T14:56:29.437Z,2.90
2024-01-07T14:58:56.453Z,3.45
2024-01-07T15:01:23.917Z,4.40
2024-01-07T15:03:51.151Z,3.83
2024-01-07T15:06:18.581Z,3.58
2024-01-07T15:08:45.509Z,3.51
2024-01-07T15:11:12.390Z,3.46
2024-01-07T15:13:40.923Z,3.94
2024-01-07T15:16:08.265Z,3.31
2024-01-07T15:18:38.320Z,2.92
2024-01-07T15:21:06.738Z,2.41
2024-01-07T15:23:33.857Z,2.93
2024-01-07T15:26:00.658Z,3.82
2024-01-07T15:28:27.628Z,3.06
2024-01-07T15:30:54.661Z,3.84
2024-01-07T15:33:21.988Z,3.91
2024-01-07T15:35:49.141Z,4.10
2024-01-07T15:38:15.975Z,3.91
2024-01-07T15:40:43.519Z,3.51
2024-01-07T15:43:13.600Z,4.02
2024-01-07T15:45:40.600Z,3.27
2024-01-07T15:48:08.209Z,3.77
2024-01-07T15:50:35.191Z,3.38
2024-01-07T15:53:05.161Z,2.17
2024-01-07T15:55:33.838Z,3.15
2024-01-07T15:58:00.693Z,2.10
2024-01-07T16:00:27.549Z,2.69
2024-01-07T16:02:55.325Z,3.33
2024-01-07T16:05:22.203Z,3.14
2024-01-07T16:07:49.020Z,4.18
2024-01-07T16:10:15.880Z,4.45
2024-01-07T16:12:44.264Z,3.54
2024-01-07T16:15:11.106Z,2.96
2024-01-07T16:17:37.953Z,2.81
2024-01-07T16:20:05.249Z,4.47
2024-01-07T16:22:32.125Z,3.63
2024-01-07T16:24:59.025Z,3.07
2024-01-07T16:27:25.878Z,2.92
2024-01-07T16:29:52.667Z,3.20
2024-01-07T16:32:20.138Z,1.88
2024-01-07T16:34:47.918Z,3.33
2024-01-07T16:37:15.594Z,2.15
2024-01-07T16:39:42.592Z,3.18
2024-01-07T16:42:09.504Z,3.18
2024-01-07T16:44:36.351Z,2.14
2024-01-07T16:47:03.131Z,2.44
2024-01-07T16:52:00.215Z,2.85
2024-01-07T16:54:27.225Z,3.20
2024-01-07T16:56:55.502Z,3.03
2024-01-07T16:59:23.915Z,3.32
2024-01-07T17:01:51.971Z,2.84
2024-01-07T17:04:21.480Z,2.35
2024-01-07T17:06:48.308Z,3.28
2024-01-07T17:09:15.514Z,2.03
2024-01-07T17:11:42.474Z,2.07
2024-01-07T17:14:09.467Z,2.91
2024-01-07T17:16:36.268Z,2.24
2024-01-07T17:19:03.155Z,2.22
2024-01-07T17:21:30.016Z,1.28
2024-01-07T17:23:57.761Z,2.58
2024-01-07T17:26:27.497Z,3.14
2024-01-07T17:28:54.487Z,2.23
2024-01-07T17:31:21.251Z,2.31
2024-01-07T17:33:48.247Z,1.44
2024-01-07T17:36:16.730Z,2.06
2024-01-07T17:38:44.199Z,2.72
2024-01-07T17:41:12.059Z,1.35
2024-01-07T17:43:39.068Z,1.81
2024-01-07T17:46:10.869Z,1.61
2024-01-07T17:48:39.158Z,1.80
2024-01-07T17:51:07.288Z,1.03
2024-01-07T17:53:36.898Z,1.78
2024-01-07T17:56:03.959Z,1.36
2024-01-07T17:58:30.829Z,1.92
2024-01-07T18:00:59.035Z,0.84
2024-01-07T18:03:26.007Z,2.61
2024-01-07T18:05:54.850Z,3.03
2024-01-07T18:08:29.453Z,1.95
2024-01-07T18:11:02.069Z,2.71
2024-01-07T18:13:28.967Z,1.74
2024-01-07T18:15:55.823Z,1.60
2024-01-07T18:18:24.690Z,2.51
2024-01-07T18:20:51.689Z,2.63
2024-01-07T18:23:18.699Z,2.75
2024-01-07T18:25:45.560Z,2.70
2024-01-07T18:28:13.443Z,2.32
2024-01-07T18:30:40.468Z,2.69
2024-01-07T18:33:07.338Z,2.35
2024-01-07T18:35:36.851Z,1.58
2024-01-07T18:38:03.999Z,2.22
2024-01-07T18:40:30.976Z,2.74
2024-01-07T18:43:00.184Z,3.24
2024-01-07T18:45:27.180Z,3.27
2024-01-07T18:47:54.466Z,2.86
2024-01-07T18:50:21.482Z,2.36
2024-01-07T18:52:48.353Z,1.62
2024-01-07T18:55:15.945Z,3.53
2024-01-07T18:57:44.957Z,2.33
2024-01-07T19:00:16.435Z,1.78
2024-01-07T19:02:44.465Z,3.78
2024-01-07T19:05:12.018Z,3.82
2024-01-07T19:07:38.932Z,2.48
2024-01-07T19:10:06.376Z,2.93
2024-01-07T19:12:33.165Z,3.10
2024-01-07T19:14:59.954Z,0.94
2024-01-07T19:17:27.020Z,2.40
2024-01-07T19:19:53.909Z,1.50
2024-01-07T19:22:20.705Z,1.46
2024-01-07T19:24:47.620Z,2.32
2024-01-07T19:27:17.412Z,1.95
2024-01-07T19:29:44.259Z,2.07
2024-01-07T19:32:11.022Z,3.44
2024-01-07T19:34:43.109Z,3.42
2024-01-07T19:37:22.059Z,3.00
2024-01-07T19:40:14.474Z,2.70
2024-01-07T19:42:53.670Z,2.46
2024-01-07T19:45:20.751Z,2.90
2024-01-07T19:47:48.078Z,2.50
2024-01-07T19:50:14.991Z,2.00
2024-01-07T19:53:30.665Z,1.84
2024-01-07T20:00:09.811Z,1.74
2024-01-07T20:02:36.851Z,3.11
2024-01-07T20:05:04.222Z,1.59
2024-01-07T20:07:31.188Z,1.02
2024-01-07T20:09:57.968Z,1.21
2024-01-07T20:12:24.733Z,0.79
2024-01-07T20:14:51.655Z,0.36
2024-01-07T20:17:18.606Z,1.20
2024-01-07T20:19:46.824Z,1.37
2024-01-07T20:22:14.047Z,2.74
2024-01-07T20:24:41.422Z,2.08
2024-01-07T20:27:08.252Z,2.42
2024-01-07T20:29:38.022Z,0.65
2024-01-07T20:32:05.728Z,2.02
2024-01-07T20:34:33.583Z,0.39
2024-01-07T20:37:00.464Z,0.88
2024-01-07T20:39:27.333Z,1.84
2024-01-07T20:41:54.564Z,0.58
2024-01-07T20:44:21.970Z,0.31
2024-01-07T20:46:48.859Z,0.24
2024-01-07T20:49:15.894Z,-0.01
2024-01-07T20:51:42.744Z,0.67
2024-01-07T20:54:10.950Z,0.47
2024-01-07T20:56:40.613Z,0.04
2024-01-07T20:59:09.260Z,1.85
2024-01-07T21:01:36.409Z,1.84
2024-01-07T21:04:04.019Z,1.49
2024-01-07T21:06:31.152Z,0.39
2024-01-07T21:08:58.126Z,1.62
2024-01-07T21:11:24.993Z,0.47
2024-01-07T21:13:52.125Z,1.05
2024-01-07T21:16:19.114Z,1.43
2024-01-07T21:18:46.001Z,0.70
2024-01-07T21:21:13.225Z,1.54
2024-01-07T21:23:40.143Z,1.24
2024-01-07T21:26:07.658Z,2.00
2024-01-07T21:28:35.752Z,0.29
2024-01-07T21:31:04.483Z,2.00
2024-01-07T21:33:31.554Z,-0.39
2024-01-07T21:36:00.463Z,1.29
2024-01-07T21:38:27.781Z,0.50
2024-01-07T21:40:56.824Z,1.74
2024-01-07T21:43:24.918Z,0.54
2024-01-07T21:45:51.939Z,0.26
2024-01-07T21:48:18.924Z,0.89
2024-01-07T21:50:45.703Z,1.02
2024-01-07T21:53:12.619Z,0.31
2024-01-07T21:55:40.916Z,-0.08
2024-01-07T21:58:08.578Z,0.59
2024-01-07T22:00:36.288Z,0.99
2024-01-07T22:03:03.996Z,-0.10
2024-01-07T22:05:31.117Z,0.67
2024-01-07T22:07:57.921Z,0.69
2024-01-07T22:10:24.719Z,1.69
2024-01-07T22:12:51.598Z,0.61
2024-01-07T22:15:18.518Z,0.14
2024-01-07T22:17:45.375Z,-0.41
2024-01-07T22:20:13.248Z,-0.80
2024-01-07T22:22:40.270Z,-0.30
2024-01-07T22:25:08.568Z,-1.27
2024-01-07T22:27:36.483Z,-0.97
2024-01-07T22:30:04.490Z,-0.85
2024-01-07T22:32:31.515Z,0.00
2024-01-07T22:35:00.679Z,0.35
2024-01-07T22:37:28.307Z,0.14
2024-01-07T22:39:55.007Z,1.01
2024-01-07T22:42:21.783Z,-0.98
2024-01-07T22:44:48.570Z,-0.55
2024-01-07T22:47:15.608Z,0.80
2024-01-07T22:49:42.699Z,-0.77
2024-01-07T22:52:09.581Z,-0.49
2024-01-07T22:54:39.011Z,0.02
2024-01-07T22:57:07.046Z,-0.91
2024-01-07T22:59:37.029Z,-0.09
2024-01-07T23:02:05.829Z,-0.39
2024-01-07T23:04:32.734Z,-0.49
2024-01-07T23:06:59.817Z,-0.14
2024-01-07T23:09:26.639Z,-1.34
2024-01-07T23:11:53.568Z,-1.20
2024-01-07T23:14:20.357Z,-1.69
2024-01-07T23:16:47.179Z,-1.64
2024-01-07T23:19:13.998Z,-0.81
2024-01-07T23:21:40.925Z,0.38
2024-01-07T23:24:07.763Z,-1.33
2024-01-07T23:26:34.768Z,-1.28
2024-01-07T23:29:01.790Z,-0.65
2024-01-07T23:31:28.766Z,-1.66
2024-01-07T23:33:56.935Z,-0.98
2024-01-07T23:36:24.187Z,-1.69
2024-01-07T23:38:51.159Z,-2.08
2024-01-07T23:41:18.038Z,-1.64
2024-01-07T23:43:45.021Z,-0.97
2024-01-07T23:46:11.859Z,-1.49
2024-01-07T23:48:38.862Z,-0.91
2024-01-07T23:51:05.877Z,-1.24
2024-01-07T23:53:32.843Z,-1.87
2024-01-07T23:56:00.009Z,-1.81
2024-01-07T23:58:27.345Z,-0.64
